sensor_id;sensor_type;location;lat;lon;timestamp;pressure;altitude;pressure_sealevel;temperature;humidity
14293;BME280;62290;59.420;17.842;2023-04-04T00:00:41;102678.53;;;26.32;13.16
14293;BME280;62290;59.420;17.842;2023-04-04T00:03:09;102678.53;;;26.32;12.87
14293;BME280;62290;59.420;17.842;2023-04-04T00:05:37;102670.50;;;26.31;12.67
14293;BME280;62290;59.420;17.842;2023-04-04T00:08:05;102659.25;;;26.24;13.20
14293;BME280;62290;59.420;17.842;2023-04-04T00:10:35;102673.13;;;26.32;13.21
14293;BME280;62290;59.420;17.842;2023-04-04T00:13:03;102674.06;;;26.31;12.96
14293;BME280;62290;59.420;17.842;2023-04-04T00:15:31;102675.06;;;26.30;12.78
14293;BME280;62290;59.420;17.842;2023-04-04T00:18:00;102673.31;;;26.29;12.97
14293;BME280;62290;59.420;17.842;2023-04-04T00:20:29;102673.31;;;26.29;12.89
14293;BME280;62290;59.420;17.842;2023-04-04T00:22:57;102666.16;;;26.28;13.22
14293;BME280;62290;59.420;17.842;2023-04-04T00:25:26;102654.50;;;26.28;12.91
14293;BME280;62290;59.420;17.842;2023-04-04T00:27:55;102650.06;;;26.27;13.32
14293;BME280;62290;59.420;17.842;2023-04-04T00:30:27;102651.81;;;26.28;13.42
14293;BME280;62290;59.420;17.842;2023-04-04T00:32:55;102658.25;;;26.25;13.05
14293;BME280;62290;59.420;17.842;2023-04-04T00:35:23;102652.78;;;26.27;13.43
14293;BME280;62290;59.420;17.842;2023-04-04T00:37:52;102646.50;;;26.26;13.22
14293;BME280;62290;59.420;17.842;2023-04-04T00:40:20;102644.66;;;26.27;13.16
14293;BME280;62290;59.420;17.842;2023-04-04T00:42:48;102641.97;;;26.27;13.19
14293;BME280;62290;59.420;17.842;2023-04-04T00:45:18;102642.84;;;26.27;13.01
14293;BME280;62290;59.420;17.842;2023-04-04T00:47:46;102641.00;;;26.28;13.00
14293;BME280;62290;59.420;17.842;2023-04-04T00:50:16;102634.72;;;26.27;13.14
14293;BME280;62290;59.420;17.842;2023-04-04T00:52:44;102638.28;;;26.28;13.20
14293;BME280;62290;59.420;17.842;2023-04-04T00:55:12;102627.47;;;26.28;13.40
14293;BME280;62290;59.420;17.842;2023-04-04T00:57:40;102631.03;;;26.28;13.08
14293;BME280;62290;59.420;17.842;2023-04-04T01:00:11;102626.50;;;26.29;13.13
14293;BME280;62290;59.420;17.842;2023-04-04T01:02:42;102625.63;;;26.28;13.31
14293;BME280;62290;59.420;17.842;2023-04-04T01:05:10;102592.72;;;26.09;13.57
14293;BME280;62290;59.420;17.842;2023-04-04T01:07:40;102630.06;;;26.29;13.24
14293;BME280;62290;59.420;17.842;2023-04-04T01:10:10;102619.38;;;26.28;13.12
14293;BME280;62290;59.420;17.842;2023-04-04T01:12:40;102620.22;;;26.28;13.15
14293;BME280;62290;59.420;17.842;2023-04-04T01:15:09;102618.38;;;26.29;13.50
14293;BME280;62290;59.420;17.842;2023-04-04T01:17:39;102620.22;;;26.28;13.61
14293;BME280;62290;59.420;17.842;2023-04-04T01:20:11;102620.22;;;26.28;13.26
14293;BME280;62290;59.420;17.842;2023-04-04T01:22:49;102622.16;;;26.26;13.20
14293;BME280;62290;59.420;17.842;2023-04-04T01:25:24;102619.59;;;26.25;13.57
14293;BME280;62290;59.420;17.842;2023-04-04T01:27:55;102615.13;;;26.24;13.33
14293;BME280;62290;59.420;17.842;2023-04-04T01:30:26;102621.22;;;26.27;13.30
14293;BME280;62290;59.420;17.842;2023-04-04T01:32:59;102620.22;;;26.28;13.25
14293;BME280;62290;59.420;17.842;2023-04-04T01:35:33;102618.50;;;26.27;13.28
14293;BME280;62290;59.420;17.842;2023-04-04T01:38:11;102613.97;;;26.28;13.28
14293;BME280;62290;59.420;17.842;2023-04-04T01:40:47;102617.50;;;26.28;13.36
14293;BME280;62290;59.420;17.842;2023-04-04T01:43:17;102616.66;;;26.28;13.27
14293;BME280;62290;59.420;17.842;2023-04-04T01:45:45;102618.50;;;26.27;13.13
14293;BME280;62290;59.420;17.842;2023-04-04T01:48:13;102619.59;;;26.25;13.15
14293;BME280;62290;59.420;17.842;2023-04-04T01:50:45;102609.59;;;26.25;13.16
14293;BME280;62290;59.420;17.842;2023-04-04T01:53:14;102603.66;;;26.20;13.72
14293;BME280;62290;59.420;17.842;2023-04-04T01:55:44;102612.22;;;26.27;13.13
14293;BME280;62290;59.420;17.842;2023-04-04T01:58:15;102606.06;;;26.25;13.17
14293;BME280;62290;59.420;17.842;2023-04-04T02:00:43;102610.38;;;26.27;13.57
14293;BME280;62290;59.420;17.842;2023-04-04T02:03:11;102613.97;;;26.28;13.43
14293;BME280;62290;59.420;17.842;2023-04-04T02:05:39;102601.28;;;26.28;13.19
14293;BME280;62290;59.420;17.842;2023-04-04T02:08:08;102604.78;;;26.30;13.48
14293;BME280;62290;59.420;17.842;2023-04-04T02:10:47;102593.19;;;26.28;13.05
14293;BME280;62290;59.420;17.842;2023-04-04T02:13:16;102599.38;;;26.30;13.38
14293;BME280;62290;59.420;17.842;2023-04-04T02:15:45;102592.97;;;26.31;13.44
14293;BME280;62290;59.420;17.842;2023-04-04T02:18:13;102593.72;;;26.33;13.05
14293;BME280;62290;59.420;17.842;2023-04-04T02:20:41;102595.59;;;26.33;13.48
14293;BME280;62290;59.420;17.842;2023-04-04T02:23:09;102597.41;;;26.32;13.28
14293;BME280;62290;59.420;17.842;2023-04-04T02:25:37;102597.41;;;26.32;13.09
14293;BME280;62290;59.420;17.842;2023-04-04T02:28:08;102592.00;;;26.32;13.13
14293;BME280;62290;59.420;17.842;2023-04-04T02:30:37;102590.19;;;26.33;13.57
14293;BME280;62290;59.420;17.842;2023-04-04T02:33:05;102585.75;;;26.32;13.42
14293;BME280;62290;59.420;17.842;2023-04-04T02:35:33;102589.31;;;26.32;13.17
14293;BME280;62290;59.420;17.842;2023-04-04T02:38:02;102592.00;;;26.32;13.53
14293;BME280;62290;59.420;17.842;2023-04-04T02:40:38;102591.13;;;26.32;13.54
14293;BME280;62290;59.420;17.842;2023-04-04T02:43:10;102589.31;;;26.32;13.44
14293;BME280;62290;59.420;17.842;2023-04-04T02:45:39;102583.03;;;26.32;13.55
14293;BME280;62290;59.420;17.842;2023-04-04T02:48:16;102592.97;;;26.31;13.66
14293;BME280;62290;59.420;17.842;2023-04-04T02:50:47;102589.41;;;26.31;13.31
14293;BME280;62290;59.420;17.842;2023-04-04T02:53:16;102580.34;;;26.32;13.46
14293;BME280;62290;59.420;17.842;2023-04-04T02:55:46;102580.44;;;26.30;13.39
14293;BME280;62290;59.420;17.842;2023-04-04T02:58:16;102583.78;;;26.34;13.48
14293;BME280;62290;59.420;17.842;2023-04-04T03:00:44;102583.03;;;26.32;13.17
14293;BME280;62290;59.420;17.842;2023-04-04T03:03:13;102584.88;;;26.31;13.03
14293;BME280;62290;59.420;17.842;2023-04-04T03:05:44;102582.28;;;26.30;13.08
14293;BME280;62290;59.420;17.842;2023-04-04T03:08:12;102583.25;;;26.29;13.37
14293;BME280;62290;59.420;17.842;2023-04-04T03:10:40;102587.47;;;26.33;13.49
14293;BME280;62290;59.420;17.842;2023-04-04T03:13:08;102586.59;;;26.32;13.15
14293;BME280;62290;59.420;17.842;2023-04-04T03:15:39;102587.56;;;26.31;13.27
14293;BME280;62290;59.420;17.842;2023-04-04T03:18:07;102584.88;;;26.31;13.13
14293;BME280;62290;59.420;17.842;2023-04-04T03:20:35;102583.16;;;26.30;13.55
14293;BME280;62290;59.420;17.842;2023-04-04T03:23:03;102580.44;;;26.30;13.35
14293;BME280;62290;59.420;17.842;2023-04-04T03:25:32;102575.88;;;26.31;13.47
14293;BME280;62290;59.420;17.842;2023-04-04T03:28:07;102561.41;;;26.32;13.20
14293;BME280;62290;59.420;17.842;2023-04-04T03:30:35;102572.34;;;26.30;13.24
14293;BME280;62290;59.420;17.842;2023-04-04T03:33:05;102574.94;;;26.32;13.50
14293;BME280;62290;59.420;17.842;2023-04-04T03:35:36;102573.09;;;26.32;13.38
14293;BME280;62290;59.420;17.842;2023-04-04T03:38:05;102559.56;;;26.32;13.62
14293;BME280;62290;59.420;17.842;2023-04-04T03:40:33;102561.41;;;26.32;13.36
14293;BME280;62290;59.420;17.842;2023-04-04T03:43:08;102562.28;;;26.32;13.41
14293;BME280;62290;59.420;17.842;2023-04-04T03:45:37;102567.69;;;26.32;13.19
14293;BME280;62290;59.420;17.842;2023-04-04T03:48:08;102554.16;;;26.32;13.57
14293;BME280;62290;59.420;17.842;2023-04-04T03:50:37;102554.25;;;26.31;13.47
14293;BME280;62290;59.420;17.842;2023-04-04T03:53:06;102554.50;;;26.28;13.69
14293;BME280;62290;59.420;17.842;2023-04-04T03:55:34;102553.63;;;26.27;13.66
14293;BME280;62290;59.420;17.842;2023-04-04T03:58:03;102556.97;;;26.31;13.51
14293;BME280;62290;59.420;17.842;2023-04-04T04:00:31;102541.94;;;26.27;13.28
14293;BME280;62290;59.420;17.842;2023-04-04T04:02:59;102547.03;;;26.31;13.27
14293;BME280;62290;59.420;17.842;2023-04-04T04:05:30;102548.75;;;26.32;13.65
14293;BME280;62290;59.420;17.842;2023-04-04T04:07:58;102554.25;;;26.31;13.68
14293;BME280;62290;59.420;17.842;2023-04-04T04:10:26;102550.59;;;26.32;13.53
14293;BME280;62290;59.420;17.842;2023-04-04T04:12:54;102544.31;;;26.31;13.16
14293;BME280;62290;59.420;17.842;2023-04-04T04:15:22;102545.31;;;26.30;13.17
14293;BME280;62290;59.420;17.842;2023-04-04T04:17:51;102531.00;;;26.28;13.19
14293;BME280;62290;59.420;17.842;2023-04-04T04:20:20;102531.00;;;26.28;13.55
14293;BME280;62290;59.420;17.842;2023-04-04T04:22:52;102531.88;;;26.29;13.63
14293;BME280;62290;59.420;17.842;2023-04-04T04:25:21;102527.34;;;26.29;13.68
14293;BME280;62290;59.420;17.842;2023-04-04T04:28:01;102527.34;;;26.29;13.35
14293;BME280;62290;59.420;17.842;2023-04-04T04:30:30;102524.53;;;26.31;13.46
14293;BME280;62290;59.420;17.842;2023-04-04T04:32:58;102524.53;;;26.31;13.51
14293;BME280;62290;59.420;17.842;2023-04-04T04:35:35;102512.09;;;26.28;13.29
14293;BME280;62290;59.420;17.842;2023-04-04T04:38:05;102495.78;;;26.17;13.48
14293;BME280;62290;59.420;17.842;2023-04-04T04:40:34;102516.41;;;26.31;13.30
14293;BME280;62290;59.420;17.842;2023-04-04T04:43:12;102514.59;;;26.31;13.37
14293;BME280;62290;59.420;17.842;2023-04-04T04:45:40;102518.16;;;26.32;13.13
14293;BME280;62290;59.420;17.842;2023-04-04T04:48:10;102516.53;;;26.29;13.30
14293;BME280;62290;59.420;17.842;2023-04-04T04:50:46;102518.91;;;26.34;13.49
14293;BME280;62290;59.420;17.842;2023-04-04T04:53:23;102522.47;;;26.34;13.21
14293;BME280;62290;59.420;17.842;2023-04-04T04:55:52;102516.09;;;26.35;13.39
14293;BME280;62290;59.420;17.842;2023-04-04T04:58:20;102516.94;;;26.36;13.49
14293;BME280;62290;59.420;17.842;2023-04-04T05:00:54;102526.81;;;26.37;13.35
14293;BME280;62290;59.420;17.842;2023-04-04T05:03:30;102525.06;;;26.36;13.72
14293;BME280;62290;59.420;17.842;2023-04-04T05:05:59;102517.19;;;26.33;13.69
14293;BME280;62290;59.420;17.842;2023-04-04T05:08:29;102523.75;;;26.42;13.72
14293;BME280;62290;59.420;17.842;2023-04-04T05:11:17;102527.47;;;26.41;13.38
14293;BME280;62290;59.420;17.842;2023-04-04T05:13:45;102516.72;;;26.39;13.43
14293;BME280;62290;59.420;17.842;2023-04-04T05:16:14;102517.41;;;26.43;13.62
14293;BME280;62290;59.420;17.842;2023-04-04T05:18:45;102526.25;;;26.45;13.23
14293;BME280;62290;59.420;17.842;2023-04-04T05:21:13;102521.72;;;26.45;13.10
14293;BME280;62290;59.420;17.842;2023-04-04T05:23:45;102520.75;;;26.46;13.35
14293;BME280;62290;59.420;17.842;2023-04-04T05:26:15;102512.84;;;26.43;13.10
14293;BME280;62290;59.420;17.842;2023-04-04T05:28:47;102511.78;;;26.46;13.62
14293;BME280;62290;59.420;17.842;2023-04-04T05:31:16;102518.88;;;26.47;13.50
14293;BME280;62290;59.420;17.842;2023-04-04T05:33:44;102511.88;;;26.44;13.63
14293;BME280;62290;59.420;17.842;2023-04-04T05:36:29;102516.97;;;26.49;13.65
14293;BME280;62290;59.420;17.842;2023-04-04T05:39:04;102507.13;;;26.48;13.30
14293;BME280;62290;59.420;17.842;2023-04-04T05:41:37;102513.25;;;26.50;13.72
14293;BME280;62290;59.420;17.842;2023-04-04T05:44:13;102510.56;;;26.50;13.63
14293;BME280;62290;59.420;17.842;2023-04-04T05:46:42;102508.72;;;26.50;13.35
14293;BME280;62290;59.420;17.842;2023-04-04T05:49:10;102509.59;;;26.51;13.49
14293;BME280;62290;59.420;17.842;2023-04-04T05:51:43;102506.78;;;26.52;13.74
14293;BME280;62290;59.420;17.842;2023-04-04T05:54:15;102516.50;;;26.55;13.31
14293;BME280;62290;59.420;17.842;2023-04-04T05:56:43;102510.13;;;26.56;13.52
14293;BME280;62290;59.420;17.842;2023-04-04T05:59:33;102502.00;;;26.56;13.61
14293;BME280;62290;59.420;17.842;2023-04-04T06:02:04;102505.47;;;26.58;13.21
14293;BME280;62290;59.420;17.842;2023-04-04T06:04:37;102508.09;;;26.59;13.24
14293;BME280;62290;59.420;17.842;2023-04-04T06:07:08;102510.78;;;26.59;13.25
14293;BME280;62290;59.420;17.842;2023-04-04T06:09:38;102512.50;;;26.60;13.28
14293;BME280;62290;59.420;17.842;2023-04-04T06:12:07;102508.91;;;26.60;13.56
14293;BME280;62290;59.420;17.842;2023-04-04T06:14:36;102516.06;;;26.61;13.34
14293;BME280;62290;59.420;17.842;2023-04-04T06:17:06;102501.69;;;26.60;13.69
14293;BME280;62290;59.420;17.842;2023-04-04T06:19:34;102505.13;;;26.62;13.34
14293;BME280;62290;59.420;17.842;2023-04-04T06:22:02;102421.94;;;26.17;13.53
14293;BME280;62290;59.420;17.842;2023-04-04T06:24:33;102502.44;;;26.62;13.75
14293;BME280;62290;59.420;17.842;2023-04-04T06:27:05;102474.88;;;26.45;13.48
14293;BME280;62290;59.420;17.842;2023-04-04T06:29:34;102500.59;;;26.63;13.91
14293;BME280;62290;59.420;17.842;2023-04-04T06:32:03;102501.59;;;26.62;13.45
14293;BME280;62290;59.420;17.842;2023-04-04T06:34:38;102501.59;;;26.62;13.39
14293;BME280;62290;59.420;17.842;2023-04-04T06:37:07;102491.72;;;26.61;13.55
14293;BME280;62290;59.420;17.842;2023-04-04T06:39:53;102502.56;;;26.61;13.38
14293;BME280;62290;59.420;17.842;2023-04-04T06:42:26;102502.44;;;26.62;13.56
14293;BME280;62290;59.420;17.842;2023-04-04T06:44:57;102513.25;;;26.62;13.84
14293;BME280;62290;59.420;17.842;2023-04-04T06:47:26;102512.41;;;26.62;13.50
14293;BME280;62290;59.420;17.842;2023-04-04T06:49:54;102514.84;;;26.65;13.84
14293;BME280;62290;59.420;17.842;2023-04-04T06:52:23;102515.84;;;26.64;13.50
14293;BME280;62290;59.420;17.842;2023-04-04T06:54:52;102508.69;;;26.63;13.99
14293;BME280;62290;59.420;17.842;2023-04-04T06:57:20;102515.09;;;26.62;14.00
14293;BME280;62290;59.420;17.842;2023-04-04T06:59:49;102503.72;;;26.57;13.65
14293;BME280;62290;59.420;17.842;2023-04-04T07:02:17;102513.25;;;26.62;13.82
14293;BME280;62290;59.420;17.842;2023-04-04T07:04:45;102514.97;;;26.63;13.70
14293;BME280;62290;59.420;17.842;2023-04-04T07:07:13;102509.56;;;26.63;14.00
14293;BME280;62290;59.420;17.842;2023-04-04T07:09:41;102512.16;;;26.65;14.07
14293;BME280;62290;59.420;17.842;2023-04-04T07:12:09;102514.63;;;26.68;13.83
14293;BME280;62290;59.420;17.842;2023-04-04T07:14:37;102505.56;;;26.69;14.34
14293;BME280;62290;59.420;17.842;2023-04-04T07:17:07;102508.66;;;26.75;13.91
14293;BME280;62290;59.420;17.842;2023-04-04T07:19:47;102501.25;;;26.79;14.28
14293;BME280;62290;59.420;17.842;2023-04-04T07:22:15;102505.56;;;26.81;14.31
14293;BME280;62290;59.420;17.842;2023-04-04T07:24:43;102506.31;;;26.83;14.26
14293;BME280;62290;59.420;17.842;2023-04-04T07:27:11;102504.34;;;26.85;13.99
14293;BME280;62290;59.420;17.842;2023-04-04T07:29:41;102502.41;;;26.87;14.26
14293;BME280;62290;59.420;17.842;2023-04-04T07:32:10;102500.56;;;26.88;13.86
14293;BME280;62290;59.420;17.842;2023-04-04T07:34:38;102499.59;;;26.89;14.14
14293;BME280;62290;59.420;17.842;2023-04-04T07:37:06;102491.25;;;26.92;13.98
14293;BME280;62290;59.420;17.842;2023-04-04T07:39:34;102496.53;;;26.93;13.73
14293;BME280;62290;59.420;17.842;2023-04-04T07:42:02;102497.19;;;26.97;13.93
14293;BME280;62290;59.420;17.842;2023-04-04T07:44:30;102498.78;;;27.00;14.22
14293;BME280;62290;59.420;17.842;2023-04-04T07:46:59;102501.38;;;27.01;13.83
14293;BME280;62290;59.420;17.842;2023-04-04T07:49:37;102499.66;;;27.00;13.96
14293;BME280;62290;59.420;17.842;2023-04-04T07:52:05;102507.78;;;27.00;13.81
14293;BME280;62290;59.420;17.842;2023-04-04T07:54:33;102509.50;;;27.01;13.72
14293;BME280;62290;59.420;17.842;2023-04-04T07:57:01;102505.72;;;27.04;14.01
14293;BME280;62290;59.420;17.842;2023-04-04T07:59:31;102497.81;;;27.01;13.95
14293;BME280;62290;59.420;17.842;2023-04-04T08:01:59;102509.16;;;27.06;14.16
14293;BME280;62290;59.420;17.842;2023-04-04T08:04:27;102506.34;;;27.07;14.17
14293;BME280;62290;59.420;17.842;2023-04-04T08:06:56;102499.97;;;27.08;13.78
14293;BME280;62290;59.420;17.842;2023-04-04T08:09:24;102500.69;;;27.10;13.90
14293;BME280;62290;59.420;17.842;2023-04-04T08:11:57;102510.56;;;27.11;13.80
14293;BME280;62290;59.420;17.842;2023-04-04T08:14:25;102503.63;;;27.07;14.21
14293;BME280;62290;59.420;17.842;2023-04-04T08:16:53;102521.03;;;27.16;13.75
14293;BME280;62290;59.420;17.842;2023-04-04T08:19:21;102515.41;;;27.19;14.18
14293;BME280;62290;59.420;17.842;2023-04-04T08:21:49;102519.72;;;27.21;13.82
14293;BME280;62290;59.420;17.842;2023-04-04T08:24:18;102519.50;;;27.24;13.94
14293;BME280;62290;59.420;17.842;2023-04-04T08:26:48;102515.69;;;27.27;14.00
14293;BME280;62290;59.420;17.842;2023-04-04T08:29:29;102517.41;;;27.28;13.78
14293;BME280;62290;59.420;17.842;2023-04-04T08:31:58;102516.44;;;27.29;13.73
14293;BME280;62290;59.420;17.842;2023-04-04T08:34:27;102517.31;;;27.29;13.80
14293;BME280;62290;59.420;17.842;2023-04-04T08:36:55;102513.81;;;27.27;14.03
14293;BME280;62290;59.420;17.842;2023-04-04T08:39:25;102522.59;;;27.31;13.73
14293;BME280;62290;59.420;17.842;2023-04-04T08:42:00;102519.75;;;27.32;13.68
14293;BME280;62290;59.420;17.842;2023-04-04T08:44:29;102523.34;;;27.33;14.02
14293;BME280;62290;59.420;17.842;2023-04-04T08:46:58;102525.06;;;27.34;13.92
14293;BME280;62290;59.420;17.842;2023-04-04T08:49:28;102523.97;;;27.36;13.88
14293;BME280;62290;59.420;17.842;2023-04-04T08:52:00;102493.63;;;27.20;13.61
14293;BME280;62290;59.420;17.842;2023-04-04T08:54:32;102518.38;;;27.39;13.72
14293;BME280;62290;59.420;17.842;2023-04-04T08:57:01;102517.38;;;27.40;13.70
14293;BME280;62290;59.420;17.842;2023-04-04T08:59:30;102521.94;;;27.40;13.42
14293;BME280;62290;59.420;17.842;2023-04-04T09:02:03;102515.53;;;27.41;13.35
14293;BME280;62290;59.420;17.842;2023-04-04T09:04:32;102512.72;;;27.42;13.69
14293;BME280;62290;59.420;17.842;2023-04-04T09:07:00;102504.59;;;27.42;13.17
14293;BME280;62290;59.420;17.842;2023-04-04T09:09:32;102515.44;;;27.42;13.28
14293;BME280;62290;59.420;17.842;2023-04-04T09:12:00;102512.19;;;27.37;13.23
14293;BME280;62290;59.420;17.842;2023-04-04T09:14:29;102509.16;;;27.42;13.26
14293;BME280;62290;59.420;17.842;2023-04-04T09:16:57;102507.41;;;27.41;13.15
14293;BME280;62290;59.420;17.842;2023-04-04T09:19:26;102497.44;;;27.41;13.14
14293;BME280;62290;59.420;17.842;2023-04-04T09:21:54;102503.72;;;27.42;13.28
14293;BME280;62290;59.420;17.842;2023-04-04T09:24:22;102500.16;;;27.41;12.94
14293;BME280;62290;59.420;17.842;2023-04-04T09:26:52;102498.31;;;27.42;13.24
14293;BME280;62290;59.420;17.842;2023-04-04T09:29:21;102503.59;;;27.43;13.01
14293;BME280;62290;59.420;17.842;2023-04-04T09:31:49;102496.34;;;27.44;12.93
14293;BME280;62290;59.420;17.842;2023-04-04T09:34:18;102499.19;;;27.42;13.15
14293;BME280;62290;59.420;17.842;2023-04-04T09:36:47;102501.88;;;27.42;12.91
14293;BME280;62290;59.420;17.842;2023-04-04T09:39:15;102493.78;;;27.42;12.87
14293;BME280;62290;59.420;17.842;2023-04-04T09:41:44;102474.72;;;27.31;13.10
14293;BME280;62290;59.420;17.842;2023-04-04T09:44:13;102488.59;;;27.39;12.77
14293;BME280;62290;59.420;17.842;2023-04-04T09:46:43;102489.50;;;27.38;12.56
14293;BME280;62290;59.420;17.842;2023-04-04T09:49:11;102495.94;;;27.37;12.87
14293;BME280;62290;59.420;17.842;2023-04-04T09:51:47;102492.16;;;27.40;13.18
14293;BME280;62290;59.420;17.842;2023-04-04T09:54:20;102487.47;;;27.42;13.49
14293;BME280;62290;59.420;17.842;2023-04-04T09:56:56;102492.91;;;27.42;13.63
14293;BME280;62290;59.420;17.842;2023-04-04T09:59:27;102488.34;;;27.42;13.57
14293;BME280;62290;59.420;17.842;2023-04-04T10:01:55;102489.09;;;27.44;13.82
14293;BME280;62290;59.420;17.842;2023-04-04T10:04:23;102491.66;;;27.46;13.80
14293;BME280;62290;59.420;17.842;2023-04-04T10:06:53;102488.72;;;27.49;13.42
14293;BME280;62290;59.420;17.842;2023-04-04T10:09:22;102485.94;;;27.50;13.42
14293;BME280;62290;59.420;17.842;2023-04-04T10:11:50;102479.41;;;27.53;13.26
14293;BME280;62290;59.420;17.842;2023-04-04T10:14:34;102487.41;;;27.54;13.52
14293;BME280;62290;59.420;17.842;2023-04-04T10:17:06;102479.41;;;27.53;13.39
14293;BME280;62290;59.420;17.842;2023-04-04T10:19:36;102479.41;;;27.53;13.25
14293;BME280;62290;59.420;17.842;2023-04-04T10:22:05;102474.97;;;27.52;13.31
14293;BME280;62290;59.420;17.842;2023-04-04T10:24:33;102483.81;;;27.54;13.49
14293;BME280;62290;59.420;17.842;2023-04-04T10:27:02;102477.53;;;27.53;13.09
14293;BME280;62290;59.420;17.842;2023-04-04T10:29:30;102480.25;;;27.53;13.21
14293;BME280;62290;59.420;17.842;2023-04-04T10:32:01;102483.22;;;27.50;13.07
14293;BME280;62290;59.420;17.842;2023-04-04T10:34:44;102482.72;;;27.56;13.26
14293;BME280;62290;59.420;17.842;2023-04-04T10:37:19;102475.47;;;27.57;13.11
14293;BME280;62290;59.420;17.842;2023-04-04T10:39:57;102476.44;;;27.56;12.81
14293;BME280;62290;59.420;17.842;2023-04-04T10:42:31;102470.91;;;27.58;12.98
14293;BME280;62290;59.420;17.842;2023-04-04T10:45:07;102464.75;;;27.55;12.95
14293;BME280;62290;59.420;17.842;2023-04-04T10:47:48;102472.75;;;27.57;13.21
14293;BME280;62290;59.420;17.842;2023-04-04T10:50:18;102430.81;;;27.39;12.50
14293;BME280;62290;59.420;17.842;2023-04-04T10:52:47;102456.38;;;27.58;12.64
14293;BME280;62290;59.420;17.842;2023-04-04T10:55:17;102454.53;;;27.59;12.75
14293;BME280;62290;59.420;17.842;2023-04-04T10:57:47;102465.38;;;27.59;12.75
14293;BME280;62290;59.420;17.842;2023-04-04T11:00:19;102461.69;;;27.60;12.56
14293;BME280;62290;59.420;17.842;2023-04-04T11:02:53;102455.63;;;27.56;12.61
14293;BME280;62290;59.420;17.842;2023-04-04T11:05:24;102446.53;;;27.58;12.79
14293;BME280;62290;59.420;17.842;2023-04-04T11:07:57;102450.97;;;27.58;12.58
14293;BME280;62290;59.420;17.842;2023-04-04T11:10:30;102450.13;;;27.58;12.79
14293;BME280;62290;59.420;17.842;2023-04-04T11:13:01;102452.69;;;27.60;12.77
14293;BME280;62290;59.420;17.842;2023-04-04T11:15:50;102434.47;;;27.62;12.51
14293;BME280;62290;59.420;17.842;2023-04-04T11:18:21;102448.00;;;27.62;12.57
14293;BME280;62290;59.420;17.842;2023-04-04T11:21:00;102446.06;;;27.64;12.59
14293;BME280;62290;59.420;17.842;2023-04-04T11:26:42;102433.50;;;27.63;12.59
14293;BME280;62290;59.420;17.842;2023-04-04T11:29:19;102435.97;;;27.66;12.47
14293;BME280;62290;59.420;17.842;2023-04-04T11:31:49;102431.66;;;27.63;12.57
14293;BME280;62290;59.420;17.842;2023-04-04T11:34:31;102432.53;;;27.64;12.48
14293;BME280;62290;59.420;17.842;2023-04-04T11:37:14;102413.53;;;27.52;12.30
14293;BME280;62290;59.420;17.842;2023-04-04T11:39:46;102428.97;;;27.63;12.36
14293;BME280;62290;59.420;17.842;2023-04-04T11:42:22;102432.41;;;27.65;12.22
14293;BME280;62290;59.420;17.842;2023-04-04T11:45:03;102434.00;;;27.68;12.58
14293;BME280;62290;59.420;17.842;2023-04-04T11:47:33;102423.53;;;27.63;12.41
14293;BME280;62290;59.420;17.842;2023-04-04T11:50:07;102424.91;;;27.69;12.26
14293;BME280;62290;59.420;17.842;2023-04-04T11:52:36;102414.19;;;27.67;12.36
14293;BME280;62290;59.420;17.842;2023-04-04T11:55:13;102414.91;;;27.69;12.44
14293;BME280;62290;59.420;17.842;2023-04-04T11:57:42;102419.34;;;27.70;12.41
14293;BME280;62290;59.420;17.842;2023-04-04T12:00:12;102420.97;;;27.73;12.62
14293;BME280;62290;59.420;17.842;2023-04-04T12:02:41;102412.84;;;27.73;12.14
14293;BME280;62290;59.420;17.842;2023-04-04T12:05:11;102409.16;;;27.74;12.49
14293;BME280;62290;59.420;17.842;2023-04-04T12:07:40;102377.97;;;27.57;12.54
14293;BME280;62290;59.420;17.842;2023-04-04T12:10:09;102407.56;;;27.71;12.25
14293;BME280;62290;59.420;17.842;2023-04-04T12:12:37;102397.44;;;27.73;12.11
14293;BME280;62290;59.420;17.842;2023-04-04T12:15:08;102393.88;;;27.73;12.22
14293;BME280;62290;59.420;17.842;2023-04-04T12:17:44;102395.72;;;27.72;12.13
14293;BME280;62290;59.420;17.842;2023-04-04T12:20:16;102397.56;;;27.72;12.47
14293;BME280;62290;59.420;17.842;2023-04-04T12:22:47;102398.41;;;27.72;12.48
14293;BME280;62290;59.420;17.842;2023-04-04T12:25:18;102395.84;;;27.71;12.23
14293;BME280;62290;59.420;17.842;2023-04-04T12:27:46;102394.00;;;27.71;12.16
14293;BME280;62290;59.420;17.842;2023-04-04T12:30:16;102387.97;;;27.68;12.32
14293;BME280;62290;59.420;17.842;2023-04-04T12:32:45;102391.41;;;27.70;12.34
14293;BME280;62290;59.420;17.842;2023-04-04T12:35:15;102394.25;;;27.68;12.33
14293;BME280;62290;59.420;17.842;2023-04-04T12:38:02;102392.50;;;27.67;12.23
14293;BME280;62290;59.420;17.842;2023-04-04T12:40:34;102385.63;;;27.63;12.03
14293;BME280;62290;59.420;17.842;2023-04-04T12:43:05;102374.63;;;27.53;12.39
14293;BME280;62290;59.420;17.842;2023-04-04T12:45:37;102377.97;;;27.57;12.13
14293;BME280;62290;59.420;17.842;2023-04-04T12:48:11;102391.13;;;27.62;12.34
14293;BME280;62290;59.420;17.842;2023-04-04T12:50:54;102376.84;;;27.60;12.33
14293;BME280;62290;59.420;17.842;2023-04-04T12:53:24;102385.22;;;27.56;12.29
14293;BME280;62290;59.420;17.842;2023-04-04T12:56:13;102383.63;;;27.54;12.15
14293;BME280;62290;59.420;17.842;2023-04-04T12:58:45;102377.34;;;27.53;12.15
14293;BME280;62290;59.420;17.842;2023-04-04T13:01:14;102376.59;;;27.51;12.17